createdAt,value
2018-05-17T00:02:24.259Z,10.20
2018-05-17T00:04:56.591Z,10.20
2018-05-17T00:07:29.066Z,10.30
2018-05-17T00:10:01.470Z,10.30
2018-05-17T00:12:33.830Z,10.30
2018-05-17T00:15:06.967Z,10.20
2018-05-17T00:17:39.402Z,10.20
2018-05-17T00:20:11.825Z,10.10
2018-05-17T00:22:44.267Z,10.10
2018-05-17T00:25:16.556Z,10.10
2018-05-17T00:27:48.884Z,10.10
2018-05-17T00:30:21.948Z,10.10
2018-05-17T00:32:54.316Z,10.10
2018-05-17T00:35:26.817Z,10.10
2018-05-17T00:37:59.176Z,9.90
2018-05-17T00:40:31.424Z,9.90
2018-05-17T00:43:03.788Z,9.90
2018-05-17T00:45:36.149Z,9.90
2018-05-17T00:48:08.441Z,9.80
2018-05-17T00:50:40.738Z,9.80
2018-05-17T00:53:25.455Z,9.90
2018-05-17T00:55:57.704Z,10.00
2018-05-17T00:58:30.048Z,10.00
2018-05-17T01:01:03.192Z,9.80
2018-05-17T01:03:35.614Z,9.80
2018-05-17T01:06:08.641Z,9.70
2018-05-17T01:08:40.943Z,9.70
2018-05-17T01:11:13.292Z,9.70
2018-05-17T01:13:45.616Z,9.80
2018-05-17T01:16:18.668Z,9.90
2018-05-17T01:18:51.038Z,9.80
2018-05-17T01:21:23.317Z,9.90
2018-05-17T01:23:55.936Z,9.90
2018-05-17T01:26:29.145Z,9.70
2018-05-17T01:29:01.551Z,9.70
2018-05-17T01:31:33.935Z,9.70
2018-05-17T01:34:06.269Z,9.70
2018-05-17T01:36:38.831Z,9.70
2018-05-17T01:39:11.303Z,9.70
2018-05-17T01:41:43.643Z,9.70
2018-05-17T01:44:15.955Z,9.60
2018-05-17T01:46:48.355Z,9.60
2018-05-17T01:49:20.764Z,9.60
2018-05-17T01:51:53.047Z,9.60
2018-05-17T01:54:25.509Z,9.70
2018-05-17T01:56:57.925Z,9.80
2018-05-17T01:59:30.367Z,9.80
2018-05-17T02:02:03.432Z,9.80
2018-05-17T02:04:35.900Z,9.80
2018-05-17T02:07:08.208Z,9.90
2018-05-17T02:09:40.970Z,9.90
2018-05-17T02:12:13.216Z,9.90
2018-05-17T02:14:45.728Z,10.00
2018-05-17T02:17:17.995Z,10.00
2018-05-17T02:19:50.345Z,10.00
2018-05-17T02:22:22.731Z,10.10
2018-05-17T02:24:55.052Z,10.00
2018-05-17T02:27:27.302Z,10.10
2018-05-17T02:30:00.413Z,10.10
2018-05-17T02:32:32.989Z,10.10
2018-05-17T02:35:05.383Z,10.10
2018-05-17T02:37:37.717Z,10.10
2018-05-17T02:40:10.825Z,10.10
2018-05-17T02:42:43.192Z,10.00
2018-05-17T02:45:15.702Z,10.10
2018-05-17T02:47:48.328Z,10.10
2018-05-17T02:50:20.950Z,10.00
2018-05-17T02:52:53.288Z,9.90
2018-05-17T02:55:25.679Z,10.00
2018-05-17T02:57:57.979Z,10.00
2018-05-17T03:00:30.328Z,10.00
2018-05-17T03:03:02.649Z,10.00
2018-05-17T03:05:35.755Z,10.00
2018-05-17T03:08:08.144Z,10.00
2018-05-17T03:10:40.577Z,10.00
2018-05-17T03:13:12.909Z,10.00
2018-05-17T03:15:46.128Z,10.10
2018-05-17T03:18:18.624Z,10.10
2018-05-17T03:20:51.088Z,10.10
2018-05-17T03:23:23.334Z,10.10
2018-05-17T03:25:56.035Z,10.10
2018-05-17T03:28:29.122Z,10.10
2018-05-17T03:31:01.515Z,10.00
2018-05-17T03:33:34.784Z,10.10
2018-05-17T03:36:07.179Z,10.10
2018-05-17T03:38:40.330Z,10.20
2018-05-17T03:41:12.717Z,10.20
2018-05-17T03:43:45.105Z,10.20
2018-05-17T03:46:17.507Z,10.20
2018-05-17T03:48:50.085Z,10.20
2018-05-17T03:51:23.229Z,10.20
2018-05-17T03:53:55.583Z,10.20
2018-05-17T03:56:28.179Z,10.20
2018-05-17T03:59:00.637Z,10.20
2018-05-17T04:01:45.467Z,10.20
2018-05-17T04:04:30.917Z,10.20
2018-05-17T04:07:03.329Z,10.20
2018-05-17T04:09:36.389Z,10.10
2018-05-17T04:12:08.724Z,10.10
2018-05-17T04:14:41.118Z,10.20
2018-05-17T04:17:13.498Z,10.20
2018-05-17T04:19:45.849Z,10.10
2018-05-17T04:22:18.193Z,10.10
2018-05-17T04:24:50.453Z,10.20
2018-05-17T04:27:22.905Z,10.30
2018-05-17T04:29:55.992Z,10.20
2018-05-17T04:32:29.119Z,10.20
2018-05-17T04:35:01.375Z,10.20
2018-05-17T04:37:33.732Z,10.20
2018-05-17T04:40:06.781Z,10.30
2018-05-17T04:42:39.101Z,10.30
2018-05-17T04:45:12.238Z,10.30
2018-05-17T04:47:44.592Z,10.20
2018-05-17T04:50:16.875Z,10.30
2018-05-17T04:52:49.240Z,10.30
2018-05-17T04:55:21.503Z,10.30
2018-05-17T04:57:53.986Z,10.40
2018-05-17T05:00:26.286Z,10.30
2018-05-17T05:02:58.726Z,10.30
2018-05-17T05:05:30.980Z,10.30
2018-05-17T05:08:03.317Z,10.40
2018-05-17T05:10:35.674Z,10.30
2018-05-17T05:13:07.966Z,10.30
2018-05-17T05:15:41.109Z,10.40
2018-05-17T05:18:13.553Z,10.40
2018-05-17T05:20:45.898Z,10.40
2018-05-17T05:23:20.137Z,10.50
2018-05-17T05:25:52.441Z,10.50
2018-05-17T05:28:25.124Z,10.50
2018-05-17T05:30:57.415Z,10.50
2018-05-17T05:33:29.819Z,10.60
2018-05-17T05:36:03.013Z,10.60
2018-05-17T05:38:36.321Z,10.60
2018-05-17T05:41:08.662Z,10.60
2018-05-17T05:43:41.002Z,10.60
2018-05-17T05:46:13.413Z,10.50
2018-05-17T05:48:46.511Z,10.60
2018-05-17T05:51:19.525Z,10.70
2018-05-17T05:53:51.918Z,10.70
2018-05-17T05:56:24.331Z,10.70
2018-05-17T05:58:57.550Z,10.80
2018-05-17T06:01:29.745Z,10.80
2018-05-17T06:04:02.002Z,10.80
2018-05-17T06:06:34.293Z,10.80
2018-05-17T06:09:06.724Z,10.80
2018-05-17T06:11:39.766Z,10.80
2018-05-17T06:14:12.113Z,10.80
2018-05-17T06:16:44.506Z,10.80
2018-05-17T06:19:16.910Z,10.90
2018-05-17T06:21:49.257Z,10.90
2018-05-17T06:24:21.572Z,11.00
2018-05-17T06:26:54.725Z,11.20
2018-05-17T06:29:27.037Z,11.20
2018-05-17T06:31:59.316Z,11.20
2018-05-17T06:34:31.769Z,11.20
2018-05-17T06:37:04.926Z,11.40
2018-05-17T06:39:37.336Z,11.40
2018-05-17T06:42:10.474Z,11.50
2018-05-17T06:44:42.835Z,11.40
2018-05-17T06:47:15.226Z,11.50
2018-05-17T06:49:47.759Z,11.40
2018-05-17T06:52:20.107Z,11.30
2018-05-17T06:54:52.461Z,11.50
2018-05-17T06:57:24.772Z,11.60
2018-05-17T06:59:58.950Z,11.50
2018-05-17T07:02:31.308Z,11.50
2018-05-17T07:05:03.685Z,11.50
2018-05-17T07:07:35.982Z,11.50
2018-05-17T07:10:08.545Z,11.50
2018-05-17T07:12:41.005Z,11.60
2018-05-17T07:15:13.690Z,11.70
2018-05-17T07:17:45.981Z,11.60
2018-05-17T07:20:19.029Z,11.80
2018-05-17T07:22:51.524Z,11.80
2018-05-17T07:25:23.877Z,11.90
2018-05-17T07:27:56.143Z,11.90
2018-05-17T07:30:28.431Z,11.90
2018-05-17T07:33:01.854Z,11.80
2018-05-17T07:35:34.257Z,11.80
2018-05-17T07:38:06.601Z,11.60
2018-05-17T07:40:38.909Z,11.70
2018-05-17T07:43:11.243Z,11.60
2018-05-17T07:45:43.630Z,11.80
2018-05-17T07:48:16.725Z,12.00
2018-05-17T07:50:49.894Z,12.00
2018-05-17T07:53:22.248Z,12.00
2018-05-17T07:55:54.641Z,12.00
2018-05-17T07:58:26.976Z,12.00
2018-05-17T08:00:59.403Z,12.20
2018-05-17T08:03:31.664Z,12.30
2018-05-17T08:06:03.925Z,12.30
2018-05-17T08:08:36.217Z,12.30
2018-05-17T08:11:09.462Z,12.10
2018-05-17T08:13:41.782Z,12.10
2018-05-17T08:16:14.938Z,12.30
2018-05-17T08:18:47.326Z,12.20
2018-05-17T08:21:19.643Z,12.40
2018-05-17T08:23:52.035Z,12.50
2018-05-17T08:26:24.488Z,12.70
2018-05-17T08:28:56.921Z,12.80
2018-05-17T08:31:29.268Z,12.80
2018-05-17T08:34:01.645Z,12.90
2018-05-17T08:36:33.983Z,12.90
2018-05-17T08:39:06.344Z,12.80
2018-05-17T08:41:38.727Z,12.80
2018-05-17T08:44:11.766Z,13.10
2018-05-17T08:46:44.147Z,13.10
2018-05-17T08:49:17.329Z,13.60
2018-05-17T08:51:49.714Z,13.50
2018-05-17T08:54:22.048Z,13.70
2018-05-17T08:56:54.400Z,13.40
2018-05-17T08:59:26.642Z,13.30
2018-05-17T09:01:59.076Z,13.10
2018-05-17T09:04:31.366Z,13.30
2018-05-17T09:07:03.757Z,13.20
2018-05-17T09:09:36.760Z,13.20
2018-05-17T09:12:09.142Z,13.20
2018-05-17T09:14:41.414Z,13.10
2018-05-17T09:17:13.850Z,13.20
2018-05-17T09:19:46.979Z,13.30
2018-05-17T09:22:19.365Z,13.20
2018-05-17T09:24:51.764Z,13.30
2018-05-17T09:27:24.131Z,13.30
2018-05-17T09:29:56.481Z,13.40
2018-05-17T09:32:28.820Z,13.20
2018-05-17T09:35:01.941Z,13.00
2018-05-17T09:37:35.107Z,13.10
2018-05-17T09:40:07.446Z,13.10
2018-05-17T09:42:39.788Z,12.90
2018-05-17T09:45:12.173Z,13.10
2018-05-17T09:47:44.685Z,13.10
2018-05-17T09:50:17.731Z,13.00
2018-05-17T09:52:50.130Z,13.00
2018-05-17T09:55:23.191Z,12.90
2018-05-17T09:57:55.575Z,12.90
2018-05-17T10:00:27.968Z,12.90
2018-05-17T10:03:00.465Z,12.90
2018-05-17T10:05:33.600Z,12.90
2018-05-17T10:08:06.024Z,12.90
2018-05-17T10:10:39.081Z,13.00
2018-05-17T10:13:11.410Z,13.00
2018-05-17T10:15:44.578Z,13.10
2018-05-17T10:18:17.776Z,12.80
2018-05-17T10:20:50.147Z,12.80
2018-05-17T10:23:22.489Z,12.80
2018-05-17T10:25:54.740Z,12.80
2018-05-17T10:28:27.131Z,12.80
2018-05-17T10:30:59.503Z,12.80
2018-05-17T10:33:31.967Z,12.80
2018-05-17T10:36:04.156Z,13.00
2018-05-17T10:38:36.680Z,13.20
2018-05-17T10:41:09.069Z,13.10
2018-05-17T10:43:41.499Z,13.20
2018-05-17T10:46:13.873Z,13.10
2018-05-17T10:48:46.143Z,13.00
2018-05-17T10:51:18.522Z,13.10
2018-05-17T10:53:50.971Z,13.00
2018-05-17T10:56:24.104Z,13.00
2018-05-17T10:58:56.606Z,13.00
2018-05-17T11:01:28.990Z,12.90
2018-05-17T11:04:01.450Z,12.90
2018-05-17T11:06:33.769Z,12.90
2018-05-17T11:09:06.924Z,12.90
2018-05-17T11:11:39.301Z,12.90
2018-05-17T11:14:11.680Z,13.00
2018-05-17T11:16:43.957Z,13.10
2018-05-17T11:19:16.337Z,13.00
2018-05-17T11:21:49.467Z,12.80
2018-05-17T11:24:21.830Z,12.90
2018-05-17T11:26:54.311Z,12.90
2018-05-17T11:29:26.798Z,13.00
2018-05-17T11:31:59.088Z,13.00
2018-05-17T11:34:31.737Z,12.90
2018-05-17T11:37:04.179Z,12.80
2018-05-17T11:39:37.263Z,12.90
2018-05-17T11:42:10.342Z,13.20
2018-05-17T11:44:42.733Z,13.10
2018-05-17T11:47:15.060Z,13.30
2018-05-17T11:49:47.461Z,13.30
2018-05-17T11:52:19.682Z,13.30
2018-05-17T11:54:52.195Z,13.20
2018-05-17T11:57:24.464Z,13.10
2018-05-17T11:59:56.971Z,13.00
2018-05-17T12:02:30.137Z,13.10
2018-05-17T12:05:02.551Z,13.10
2018-05-17T12:07:34.881Z,13.10
2018-05-17T12:10:07.180Z,13.20
2018-05-17T12:12:40.314Z,13.10
2018-05-17T12:15:12.586Z,13.10
2018-05-17T12:17:45.010Z,13.00
2018-05-17T12:20:17.341Z,13.00
2018-05-17T12:22:49.562Z,13.00
2018-05-17T12:25:21.945Z,13.00
2018-05-17T12:27:54.278Z,12.90
2018-05-17T12:30:26.568Z,13.00
2018-05-17T12:32:59.044Z,13.10
2018-05-17T12:35:32.259Z,13.10
2018-05-17T12:38:04.826Z,13.00
2018-05-17T12:40:37.221Z,13.00
2018-05-17T12:43:09.522Z,13.10
2018-05-17T12:45:42.202Z,13.10
2018-05-17T12:48:14.466Z,13.00
2018-05-17T12:50:46.808Z,13.00
2018-05-17T12:53:19.949Z,13.10
2018-05-17T12:55:52.665Z,13.10
2018-05-17T12:58:25.013Z,13.10
2018-05-17T13:00:57.489Z,13.20
2018-05-17T13:03:30.716Z,13.30
2018-05-17T13:06:03.197Z,13.30
2018-05-17T13:08:35.574Z,13.40
2018-05-17T13:11:07.863Z,13.50
2018-05-17T13:13:40.227Z,13.40
2018-05-17T13:16:12.576Z,13.40
2018-05-17T13:18:44.903Z,13.30
2018-05-17T13:21:17.922Z,13.30
2018-05-17T13:23:50.138Z,13.30
2018-05-17T13:26:22.405Z,13.30
2018-05-17T13:28:54.695Z,13.20
2018-05-17T13:31:27.034Z,13.20
2018-05-17T13:33:59.417Z,13.10
2018-05-17T13:36:31.802Z,13.20
2018-05-17T13:39:04.115Z,13.10
2018-05-17T13:41:37.203Z,13.10
2018-05-17T13:44:09.615Z,13.10
2018-05-17T13:46:41.951Z,13.10
2018-05-17T13:49:14.574Z,13.10
2018-05-17T13:51:46.845Z,13.10
2018-05-17T13:54:19.134Z,13.10
2018-05-17T13:56:51.720Z,13.10
2018-05-17T13:59:24.051Z,13.10
2018-05-17T14:01:56.375Z,13.20
2018-05-17T14:04:28.733Z,13.20
2018-05-17T14:07:01.924Z,13.30
2018-05-17T14:09:34.291Z,13.30
2018-05-17T14:12:06.689Z,13.30
2018-05-17T14:14:39.804Z,13.30
2018-05-17T14:17:12.187Z,13.20
2018-05-17T14:19:45.291Z,13.30
2018-05-17T14:22:17.962Z,13.30
2018-05-17T14:24:50.234Z,13.30
2018-05-17T14:27:22.520Z,13.20
2018-05-17T14:29:54.862Z,13.00
2018-05-17T14:32:27.212Z,12.90
2018-05-17T14:34:59.526Z,12.80
2018-05-17T14:37:32.085Z,12.90
2018-05-17T14:40:04.388Z,12.90
2018-05-17T14:42:36.745Z,12.90
2018-05-17T14:45:08.980Z,13.00
2018-05-17T14:47:42.148Z,13.20
2018-05-17T14:50:15.252Z,13.10
2018-05-17T14:52:48.469Z,13.10
2018-05-17T14:55:21.607Z,13.00
2018-05-17T14:57:53.943Z,13.00
2018-05-17T15:00:26.371Z,12.90
2018-05-17T15:02:59.426Z,12.80
2018-05-17T15:05:31.808Z,12.80
2018-05-17T15:08:04.186Z,12.80
2018-05-17T15:10:36.536Z,12.80
2018-05-17T15:13:08.953Z,12.90
2018-05-17T15:15:42.111Z,13.00
2018-05-17T15:18:14.491Z,13.00
2018-05-17T15:20:46.851Z,12.80
2018-05-17T15:23:19.224Z,12.70
2018-05-17T15:25:51.514Z,12.60
2018-05-17T15:28:23.909Z,12.70
2018-05-17T15:30:56.925Z,13.00
2018-05-17T15:33:29.265Z,13.00
2018-05-17T15:36:02.328Z,13.10
2018-05-17T15:38:34.716Z,13.10
2018-05-17T15:41:07.067Z,13.10
2018-05-17T15:43:39.470Z,13.10
2018-05-17T15:46:12.575Z,13.20
2018-05-17T15:48:45.702Z,13.20
2018-05-17T15:51:18.080Z,13.10
2018-05-17T15:53:50.531Z,13.20
2018-05-17T15:56:22.924Z,13.20
2018-05-17T15:58:55.441Z,13.20
2018-05-17T16:01:28.516Z,13.20
2018-05-17T16:04:01.079Z,13.20
2018-05-17T16:06:33.336Z,13.10
2018-05-17T16:09:05.790Z,13.10
2018-05-17T16:11:38.106Z,13.00
2018-05-17T16:14:10.461Z,13.10
2018-05-17T16:16:42.839Z,13.00
2018-05-17T16:19:15.179Z,13.00
2018-05-17T16:21:47.552Z,12.90
2018-05-17T16:24:19.956Z,12.90
2018-05-17T16:26:52.344Z,12.80
2018-05-17T16:29:24.847Z,12.80
2018-05-17T16:31:57.864Z,12.90
2018-05-17T16:34:30.147Z,12.90
2018-05-17T16:37:02.656Z,12.80
2018-05-17T16:39:34.996Z,12.70
2018-05-17T16:42:07.407Z,12.70
2018-05-17T16:44:40.614Z,12.70
2018-05-17T16:47:13.752Z,12.60
2018-05-17T16:49:46.231Z,12.50
2018-05-17T16:52:18.602Z,12.60
2018-05-17T16:54:50.906Z,12.60
2018-05-17T16:57:23.331Z,12.70
2018-05-17T16:59:55.665Z,12.70
2018-05-17T17:02:28.799Z,12.40
2018-05-17T17:05:01.143Z,12.50
2018-05-17T17:07:33.616Z,12.30
2018-05-17T17:10:06.719Z,12.20
2018-05-17T17:12:39.006Z,12.20
2018-05-17T17:15:11.392Z,12.20
2018-05-17T17:17:43.720Z,12.30
2018-05-17T17:20:16.051Z,12.30
2018-05-17T17:22:48.431Z,12.20
2018-05-17T17:25:20.799Z,12.20
2018-05-17T17:27:53.158Z,12.30
2018-05-17T17:30:25.589Z,12.20
2018-05-17T17:32:57.875Z,12.20
2018-05-17T17:35:30.294Z,12.10
2018-05-17T17:38:02.651Z,12.00
2018-05-17T17:40:35.098Z,12.00
2018-05-17T17:43:07.490Z,12.00
2018-05-17T17:45:39.798Z,12.00
2018-05-17T17:48:12.140Z,11.90
2018-05-17T17:50:44.515Z,11.90
2018-05-17T17:53:16.908Z,12.00
2018-05-17T17:55:49.262Z,11.90
2018-05-17T17:58:21.594Z,11.90
2018-05-17T18:00:53.918Z,11.90
2018-05-17T18:03:26.264Z,11.80
2018-05-17T18:05:58.892Z,11.80
2018-05-17T18:08:32.744Z,11.80
2018-05-17T18:11:05.263Z,11.80
2018-05-17T18:13:37.606Z,11.80
2018-05-17T18:16:10.000Z,11.80
2018-05-17T18:18:49.592Z,11.80
2018-05-17T18:21:21.934Z,11.80
2018-05-17T18:23:54.285Z,11.80
2018-05-17T18:26:26.692Z,11.80
2018-05-17T18:28:58.976Z,11.70
2018-05-17T18:31:31.415Z,11.60
2018-05-17T18:34:03.772Z,11.60
2018-05-17T18:36:36.401Z,11.50
2018-05-17T18:39:08.700Z,11.50
2018-05-17T18:41:41.021Z,11.50
2018-05-17T18:44:13.344Z,11.50
2018-05-17T18:46:45.773Z,11.50
2018-05-17T18:49:18.109Z,11.60
2018-05-17T18:51:50.506Z,11.50
2018-05-17T18:54:23.594Z,11.50
2018-05-17T18:56:56.084Z,11.50
2018-05-17T18:59:29.158Z,11.40
2018-05-17T19:02:02.558Z,11.40
2018-05-17T19:04:35.727Z,11.40
2018-05-17T19:07:08.104Z,11.40
2018-05-17T19:09:40.412Z,11.30
2018-05-17T19:12:12.896Z,11.30
2018-05-17T19:14:45.279Z,11.30
2018-05-17T19:17:17.631Z,11.20
2018-05-17T19:19:49.979Z,11.30
2018-05-17T19:22:22.297Z,11.20
2018-05-17T19:24:55.289Z,11.20
2018-05-17T19:27:27.636Z,11.20
2018-05-17T19:30:00.062Z,11.20
2018-05-17T19:32:33.368Z,11.10
2018-05-17T19:35:05.813Z,11.00
2018-05-17T19:37:38.311Z,11.20
2018-05-17T19:40:10.711Z,11.20
2018-05-17T19:42:43.181Z,11.20
2018-05-17T19:45:16.383Z,11.10
2018-05-17T19:47:48.687Z,11.10
2018-05-17T19:50:21.030Z,11.10
2018-05-17T19:52:53.538Z,11.00
2018-05-17T19:55:26.660Z,11.00
2018-05-17T19:57:58.990Z,11.00
2018-05-17T20:00:31.327Z,11.00
2018-05-17T20:03:04.397Z,10.80
2018-05-17T20:05:36.762Z,10.80
2018-05-17T20:08:09.285Z,10.80
2018-05-17T20:10:42.642Z,10.80
2018-05-17T20:13:15.860Z,10.80
2018-05-17T20:15:48.315Z,10.70
2018-05-17T20:18:20.653Z,10.80
2018-05-17T20:20:53.026Z,10.80
2018-05-17T20:23:25.454Z,10.70
2018-05-17T20:25:57.821Z,10.70
2018-05-17T20:28:30.204Z,10.70
2018-05-17T20:31:02.540Z,10.60
2018-05-17T20:33:34.831Z,10.60
2018-05-17T20:36:07.838Z,10.70
2018-05-17T20:38:40.123Z,10.70
2018-05-17T20:41:12.354Z,10.70
2018-05-17T20:43:45.437Z,10.70
2018-05-17T20:46:18.630Z,10.70
2018-05-17T20:48:51.651Z,10.70
2018-05-17T20:51:24.026Z,10.70
2018-05-17T20:53:56.457Z,10.80
2018-05-17T20:56:28.741Z,10.70
2018-05-17T20:59:01.819Z,10.70
2018-05-17T21:01:34.112Z,10.70
2018-05-17T21:04:06.491Z,10.80
2018-05-17T21:06:39.743Z,10.70
2018-05-17T21:09:12.343Z,10.60
2018-05-17T21:11:45.469Z,10.60
2018-05-17T21:14:17.941Z,10.60
2018-05-17T21:16:50.522Z,10.60
2018-05-17T21:19:23.660Z,10.60
2018-05-17T21:21:56.114Z,10.60
2018-05-17T21:24:28.639Z,10.70
2018-05-17T21:27:01.138Z,10.70
2018-05-17T21:29:33.510Z,10.70
2018-05-17T21:32:05.930Z,10.70
2018-05-17T21:34:38.404Z,10.70
2018-05-17T21:37:10.701Z,10.70
2018-05-17T21:39:43.074Z,10.70
2018-05-17T21:42:16.181Z,10.70
2018-05-17T21:44:48.627Z,10.70
2018-05-17T21:47:21.799Z,10.70
2018-05-17T21:49:54.349Z,10.70
2018-05-17T21:52:26.984Z,10.70
2018-05-17T21:55:00.079Z,10.60
2018-05-17T21:57:32.328Z,10.60
2018-05-17T22:00:05.481Z,10.70
2018-05-17T22:02:37.848Z,10.60
2018-05-17T22:05:10.198Z,10.70
2018-05-17T22:07:42.551Z,10.60
2018-05-17T22:10:15.718Z,10.60
2018-05-17T22:12:48.865Z,10.60
2018-05-17T22:15:21.408Z,10.60
2018-05-17T22:17:54.513Z,10.60
2018-05-17T22:20:27.108Z,10.60
2018-05-17T22:22:59.569Z,10.60
2018-05-17T22:25:31.989Z,10.60
2018-05-17T22:28:04.249Z,10.70
2018-05-17T22:30:36.675Z,10.50
2018-05-17T22:33:09.019Z,10.80
2018-05-17T22:35:41.425Z,10.60
2018-05-17T22:38:13.829Z,10.60
2018-05-17T22:40:46.191Z,10.70
2018-05-17T22:43:18.556Z,10.60
2018-05-17T22:45:51.179Z,10.60
2018-05-17T22:48:23.808Z,10.50
2018-05-17T22:50:56.112Z,10.50
2018-05-17T22:53:28.386Z,10.60
2018-05-17T22:56:00.834Z,10.60
2018-05-17T22:58:36.963Z,10.70
2018-05-17T23:01:09.229Z,10.40
2018-05-17T23:03:41.549Z,10.70
2018-05-17T23:06:14.023Z,10.60
2018-05-17T23:08:46.406Z,10.60
2018-05-17T23:11:18.944Z,10.60
2018-05-17T23:13:51.256Z,10.60
2018-05-17T23:16:23.628Z,10.60
2018-05-17T23:18:55.934Z,10.60
2018-05-17T23:21:29.093Z,10.60
2018-05-17T23:24:01.372Z,10.60
2018-05-17T23:26:33.627Z,10.60
2018-05-17T23:29:05.934Z,10.50
2018-05-17T23:31:38.356Z,10.60
2018-05-17T23:34:10.626Z,10.60
2018-05-17T23:36:43.379Z,10.60
2018-05-17T23:39:15.853Z,10.60
2018-05-17T23:41:51.575Z,10.60
2018-05-17T23:44:23.980Z,10.60
2018-05-17T23:46:56.301Z,10.70
2018-05-17T23:49:28.653Z,10.60
2018-05-17T23:52:01.001Z,10.60
2018-05-17T23:54:33.378Z,10.50
2018-05-17T23:57:05.731Z,10.60
2018-05-17T23:59:38.091Z,10.60
